Flight Track Log - Related Links

Times and Time Zones

All times are in EDT time to prevent confusion due to time zone crossing. See the EJA929 flight status page for this flight to view local times or setup timezone preferences in your user account.

Time Position Orientation Groundspeed Altitude Reporting Facility
EDT Latitude Longitude Course Direction KTS MPH feet Rate Location/Type
Fri 12:19:46 PM 33.9000 -84.2833 51° Northeast 175 201 2,200  Level Atlanta TRACON
Fri 12:20:46 PM 33.9333 -84.2333 51° Northeast 213 245 4,100 2,050 Climbing Atlanta TRACON
Fri 12:21:46 PM 33.9333 -84.1667 90° East 228 262 6,300 978 Climbing Atlanta TRACON
Fri 12:23:44 PM 33.9069 -84.0114 102° East 252 290 7,000 236 Climbing Atlanta Center
Fri 12:24:44 PM 33.8778 -83.9361 115° Southeast 257 296 7,000 550 Level Atlanta Center
Fri 12:25:44 PM 33.8506 -83.8561 112° Southeast 251 289 8,100 1,500 Climbing Atlanta Center
Fri 12:26:44 PM 33.8231 -83.7786 113° Southeast 264 304 10,000 2,100 Climbing Atlanta Center
Fri 12:27:44 PM 33.8083 -83.6714 99° East 300 345 12,300 2,000 Climbing Atlanta Center
Fri 12:28:44 PM 33.7953 -83.5464 97° East 344 396 14,000 2,050 Climbing Atlanta Center
Fri 12:29:44 PM 33.7947 -83.4239 90° East 373 429 16,400 2,100 Climbing Atlanta Center
Fri 12:30:44 PM 33.7858 -83.2914 95° East 391 450 18,200 1,900 Climbing Atlanta Center
Fri 12:31:44 PM 33.7764 -83.1592 95° East 391 450 20,200 2,050 Climbing Atlanta Center
Fri 12:32:44 PM 33.7669 -83.0142 94° East 398 458 22,300 1,400 Climbing Atlanta Center
Fri 12:33:44 PM 33.7594 -82.8694 94° East 418 481 23,000 350 Climbing Atlanta Center
Fri 12:34:44 PM 33.7494 -82.7147 94° East 443 510 23,000  Level Atlanta Center
Fri 12:35:44 PM 33.7372 -82.5550 95° East 470 541 23,000 300 Level Atlanta Center
Fri 12:36:44 PM 33.7228 -82.3928 96° East 481 554 23,600 732 Climbing Atlanta Center
Fri 12:38:28 PM 33.6922 -82.1189 98° East 463 533 25,000 512 Climbing Jacksonville Center
Fri 12:39:28 PM 33.6453 -81.9644 110° East 469 540 25,000  Level Jacksonville Center
Fri 12:40:28 PM 33.5958 -81.8103 111° Southeast 480 552 25,000 -400 Level Jacksonville Center
Fri 12:41:28 PM 33.5486 -81.6539 110° East 491 565 24,200 -500 Descending Jacksonville Center
Fri 12:42:28 PM 33.5011 -81.5053 111° Southeast 491 565 24,000 -900 Descending Jacksonville Center
Fri 12:43:28 PM 33.4556 -81.3614 111° Southeast 481 554 22,400 -2,000 Descending Jacksonville Center
Fri 12:44:28 PM 33.4081 -81.2181 112° Southeast 469 540 20,000 -2,300 Descending Jacksonville Center
Fri 12:45:28 PM 33.3600 -81.0747 112° Southeast 469 540 17,800 -2,300 Descending Jacksonville Center
Fri 12:46:28 PM 33.3161 -80.9389 111° Southeast 461 531 15,400 -2,250 Descending Jacksonville Center
Fri 12:47:28 PM 33.2747 -80.8131 111° Southeast 431 496 13,300 -2,067 Descending Jacksonville Center
Fri 12:48:27 PM 33.2369 -80.6872 110° East 410 472 11,300 -1,513 Descending Jacksonville Center
Fri 12:49:27 PM 33.1972 -80.5717 112° Southeast 394 453 10,300 -992 Descending Jacksonville Center
Fri 12:50:28 PM 33.1664 -80.4781 111° Southeast 351 404 9,300 -1,240 Descending Jacksonville Center
Fri 12:51:28 PM 33.1439 -80.3919 107° East 301 346 7,800 -1,513 Descending Jacksonville Center
Fri 12:52:27 PM 33.1317 -80.3056 100° East 270 311 6,300 -1,350 Descending Jacksonville Center
Fri 12:53:28 PM 33.1261 -80.2336 95° East 264 304 5,100 -650 Descending Jacksonville Center
Fri 12:54:27 PM 33.0908 -80.1528 117° Southeast 251 289 5,000 -756 Descending Jacksonville Center
Fri 12:55:27 PM 33.0456 -80.0872 129° Southeast 251 289 3,600 -1,000 Descending Jacksonville Center
Fri 12:56:27 PM 33.0314 -80.0111 102° East 239 275 3,000 -600 Descending Jacksonville Center
Fri 12:58:00 PM 32.8986 -80.0405 245° Southwest  Level Estimated
Fri 01:05:00 PM 32.8986 -80.0405 79° East  Level Estimated
Fri 01:06:00 PM 32.8986 -80.0405 79° East  Level Estimated
Fri 01:07:00 PM 32.8986 -80.0405 79° East  Level Estimated
Fri 01:08:00 PM 32.8986 -80.0405 79° East  Level Estimated

Login

Don't have an account? Register now (free) for customized features, flight alerts, and more!